sensor_id;sensor_type;location;lat;lon;timestamp;P1;durP1;ratioP1;P2;durP2;ratioP2
71513;SDS011;59335;46.652;21.272;2023-11-22T00:01:48;10.07;;;6.10;;
71513;SDS011;59335;46.652;21.272;2023-11-22T00:04:52;10.48;;;5.70;;
71513;SDS011;59335;46.652;21.272;2023-11-22T00:07:54;9.20;;;5.60;;
71513;SDS011;59335;46.652;21.272;2023-11-22T00:10:57;11.35;;;5.97;;
71513;SDS011;59335;46.652;21.272;2023-11-22T00:14:01;10.52;;;5.90;;
71513;SDS011;59335;46.652;21.272;2023-11-22T00:17:05;9.43;;;5.63;;
71513;SDS011;59335;46.652;21.272;2023-11-22T00:20:09;12.00;;;6.18;;
71513;SDS011;59335;46.652;21.272;2023-11-22T00:23:12;10.67;;;5.97;;
71513;SDS011;59335;46.652;21.272;2023-11-22T00:26:15;9.65;;;5.53;;
71513;SDS011;59335;46.652;21.272;2023-11-22T00:29:26;9.68;;;6.05;;
71513;SDS011;59335;46.652;21.272;2023-11-22T00:32:29;9.40;;;5.82;;
71513;SDS011;59335;46.652;21.272;2023-11-22T00:35:32;9.35;;;5.75;;
71513;SDS011;59335;46.652;21.272;2023-11-22T00:38:36;9.30;;;5.40;;
71513;SDS011;59335;46.652;21.272;2023-11-22T00:41:39;10.07;;;5.82;;
71513;SDS011;59335;46.652;21.272;2023-11-22T00:44:42;10.00;;;5.80;;
71513;SDS011;59335;46.652;21.272;2023-11-22T00:47:45;9.38;;;5.60;;
71513;SDS011;59335;46.652;21.272;2023-11-22T00:50:48;10.88;;;6.03;;
71513;SDS011;59335;46.652;21.272;2023-11-22T00:53:50;9.43;;;5.63;;
71513;SDS011;59335;46.652;21.272;2023-11-22T00:56:54;10.25;;;5.57;;
71513;SDS011;59335;46.652;21.272;2023-11-22T00:59:57;10.90;;;5.57;;
71513;SDS011;59335;46.652;21.272;2023-11-22T01:03:00;11.00;;;5.75;;
71513;SDS011;59335;46.652;21.272;2023-11-22T01:06:03;13.27;;;6.00;;
71513;SDS011;59335;46.652;21.272;2023-11-22T01:09:08;12.33;;;5.77;;
71513;SDS011;59335;46.652;21.272;2023-11-22T01:12:11;10.05;;;5.70;;
71513;SDS011;59335;46.652;21.272;2023-11-22T01:15:15;9.73;;;5.72;;
71513;SDS011;59335;46.652;21.272;2023-11-22T01:18:17;10.35;;;5.75;;
71513;SDS011;59335;46.652;21.272;2023-11-22T01:21:21;9.98;;;5.82;;
71513;SDS011;59335;46.652;21.272;2023-11-22T01:24:25;9.33;;;5.87;;
71513;SDS011;59335;46.652;21.272;2023-11-22T01:27:30;9.77;;;5.70;;
71513;SDS011;59335;46.652;21.272;2023-11-22T01:30:33;9.73;;;6.18;;
71513;SDS011;59335;46.652;21.272;2023-11-22T01:33:36;8.27;;;5.50;;
71513;SDS011;59335;46.652;21.272;2023-11-22T01:36:42;10.60;;;5.78;;
71513;SDS011;59335;46.652;21.272;2023-11-22T01:39:48;10.70;;;5.90;;
71513;SDS011;59335;46.652;21.272;2023-11-22T01:42:51;10.75;;;5.68;;
71513;SDS011;59335;46.652;21.272;2023-11-22T01:45:55;9.90;;;5.90;;
71513;SDS011;59335;46.652;21.272;2023-11-22T01:48:58;9.50;;;5.80;;
71513;SDS011;59335;46.652;21.272;2023-11-22T01:52:02;9.45;;;5.47;;
71513;SDS011;59335;46.652;21.272;2023-11-22T01:55:06;9.40;;;5.73;;
71513;SDS011;59335;46.652;21.272;2023-11-22T01:58:11;9.35;;;5.60;;
71513;SDS011;59335;46.652;21.272;2023-11-22T02:01:15;9.50;;;5.78;;
71513;SDS011;59335;46.652;21.272;2023-11-22T02:04:17;8.60;;;5.32;;
71513;SDS011;59335;46.652;21.272;2023-11-22T02:07:21;10.38;;;6.20;;
71513;SDS011;59335;46.652;21.272;2023-11-22T02:10:24;8.03;;;5.23;;
71513;SDS011;59335;46.652;21.272;2023-11-22T02:13:27;9.65;;;5.53;;
71513;SDS011;59335;46.652;21.272;2023-11-22T02:20:10;9.35;;;5.43;;
71513;SDS011;59335;46.652;21.272;2023-11-22T02:23:13;10.25;;;5.57;;
71513;SDS011;59335;46.652;21.272;2023-11-22T02:26:16;9.33;;;5.80;;
71513;SDS011;59335;46.652;21.272;2023-11-22T02:29:21;9.75;;;5.82;;
71513;SDS011;59335;46.652;21.272;2023-11-22T02:32:24;10.05;;;5.60;;
71513;SDS011;59335;46.652;21.272;2023-11-22T02:35:27;10.13;;;5.88;;
71513;SDS011;59335;46.652;21.272;2023-11-22T02:38:29;9.38;;;5.45;;
71513;SDS011;59335;46.652;21.272;2023-11-22T02:41:32;9.40;;;5.67;;
71513;SDS011;59335;46.652;21.272;2023-11-22T02:44:36;9.77;;;5.53;;
71513;SDS011;59335;46.652;21.272;2023-11-22T02:47:39;9.00;;;5.30;;
71513;SDS011;59335;46.652;21.272;2023-11-22T02:50:42;9.18;;;5.68;;
71513;SDS011;59335;46.652;21.272;2023-11-22T02:53:46;9.65;;;5.50;;
71513;SDS011;59335;46.652;21.272;2023-11-22T02:56:50;9.67;;;5.60;;
71513;SDS011;59335;46.652;21.272;2023-11-22T02:59:53;10.10;;;5.50;;
71513;SDS011;59335;46.652;21.272;2023-11-22T03:02:56;9.88;;;5.28;;
71513;SDS011;59335;46.652;21.272;2023-11-22T03:05:59;9.20;;;5.20;;
71513;SDS011;59335;46.652;21.272;2023-11-22T03:09:01;9.70;;;5.85;;
71513;SDS011;59335;46.652;21.272;2023-11-22T03:12:04;8.90;;;5.80;;
71513;SDS011;59335;46.652;21.272;2023-11-22T03:15:09;8.95;;;5.68;;
71513;SDS011;59335;46.652;21.272;2023-11-22T03:18:12;8.93;;;5.25;;
71513;SDS011;59335;46.652;21.272;2023-11-22T03:21:14;10.23;;;5.60;;
71513;SDS011;59335;46.652;21.272;2023-11-22T03:24:17;9.95;;;5.90;;
71513;SDS011;59335;46.652;21.272;2023-11-22T03:27:20;9.40;;;5.50;;
71513;SDS011;59335;46.652;21.272;2023-11-22T03:30:24;8.57;;;5.45;;
71513;SDS011;59335;46.652;21.272;2023-11-22T03:33:27;9.27;;;5.30;;
71513;SDS011;59335;46.652;21.272;2023-11-22T03:36:30;8.85;;;5.53;;
71513;SDS011;59335;46.652;21.272;2023-11-22T03:39:33;8.23;;;5.50;;
71513;SDS011;59335;46.652;21.272;2023-11-22T03:42:36;8.57;;;5.90;;
71513;SDS011;59335;46.652;21.272;2023-11-22T03:45:41;8.90;;;5.72;;
71513;SDS011;59335;46.652;21.272;2023-11-22T03:48:44;8.48;;;5.40;;
71513;SDS011;59335;46.652;21.272;2023-11-22T03:51:47;9.00;;;5.60;;
71513;SDS011;59335;46.652;21.272;2023-11-22T03:54:50;8.55;;;5.30;;
71513;SDS011;59335;46.652;21.272;2023-11-22T03:57:53;9.83;;;6.23;;
71513;SDS011;59335;46.652;21.272;2023-11-22T04:00:55;9.60;;;5.45;;
71513;SDS011;59335;46.652;21.272;2023-11-22T04:03:59;9.60;;;5.80;;
71513;SDS011;59335;46.652;21.272;2023-11-22T04:07:02;10.68;;;6.07;;
71513;SDS011;59335;46.652;21.272;2023-11-22T04:10:06;9.30;;;5.55;;
71513;SDS011;59335;46.652;21.272;2023-11-22T04:13:09;10.50;;;5.47;;
71513;SDS011;59335;46.652;21.272;2023-11-22T04:16:13;9.00;;;5.30;;
71513;SDS011;59335;46.652;21.272;2023-11-22T04:19:16;9.40;;;5.63;;
71513;SDS011;59335;46.652;21.272;2023-11-22T04:22:19;9.27;;;5.40;;
71513;SDS011;59335;46.652;21.272;2023-11-22T04:25:21;9.93;;;5.32;;
71513;SDS011;59335;46.652;21.272;2023-11-22T04:28:26;9.33;;;5.70;;
71513;SDS011;59335;46.652;21.272;2023-11-22T04:31:30;8.77;;;5.38;;
71513;SDS011;59335;46.652;21.272;2023-11-22T04:34:33;10.05;;;5.28;;
71513;SDS011;59335;46.652;21.272;2023-11-22T04:37:37;8.73;;;5.45;;
71513;SDS011;59335;46.652;21.272;2023-11-22T04:40:40;9.98;;;5.70;;
71513;SDS011;59335;46.652;21.272;2023-11-22T04:43:44;7.77;;;4.97;;
71513;SDS011;59335;46.652;21.272;2023-11-22T04:46:47;8.60;;;5.18;;
71513;SDS011;59335;46.652;21.272;2023-11-22T04:49:50;9.70;;;5.60;;
71513;SDS011;59335;46.652;21.272;2023-11-22T04:52:53;9.02;;;5.68;;
71513;SDS011;59335;46.652;21.272;2023-11-22T04:55:56;9.52;;;5.85;;
71513;SDS011;59335;46.652;21.272;2023-11-22T04:59:01;8.83;;;5.40;;
71513;SDS011;59335;46.652;21.272;2023-11-22T05:02:06;8.63;;;5.45;;
71513;SDS011;59335;46.652;21.272;2023-11-22T05:05:09;8.93;;;5.30;;
71513;SDS011;59335;46.652;21.272;2023-11-22T05:08:15;8.45;;;5.15;;
71513;SDS011;59335;46.652;21.272;2023-11-22T05:11:17;8.48;;;5.00;;
71513;SDS011;59335;46.652;21.272;2023-11-22T05:14:20;9.13;;;5.20;;
71513;SDS011;59335;46.652;21.272;2023-11-22T05:17:23;8.68;;;5.18;;
71513;SDS011;59335;46.652;21.272;2023-11-22T05:20:26;8.13;;;4.82;;
71513;SDS011;59335;46.652;21.272;2023-11-22T05:23:29;8.50;;;5.50;;
71513;SDS011;59335;46.652;21.272;2023-11-22T05:26:33;8.20;;;4.80;;
71513;SDS011;59335;46.652;21.272;2023-11-22T05:29:36;10.10;;;5.37;;
71513;SDS011;59335;46.652;21.272;2023-11-22T05:32:51;8.93;;;5.15;;
71513;SDS011;59335;46.652;21.272;2023-11-22T05:35:55;8.85;;;5.35;;
71513;SDS011;59335;46.652;21.272;2023-11-22T05:38:57;8.27;;;5.18;;
71513;SDS011;59335;46.652;21.272;2023-11-22T05:42:03;8.77;;;5.60;;
71513;SDS011;59335;46.652;21.272;2023-11-22T05:45:06;8.07;;;5.17;;
71513;SDS011;59335;46.652;21.272;2023-11-22T05:48:10;9.35;;;5.72;;
71513;SDS011;59335;46.652;21.272;2023-11-22T05:51:13;8.63;;;5.00;;
71513;SDS011;59335;46.652;21.272;2023-11-22T05:54:16;8.27;;;5.22;;
71513;SDS011;59335;46.652;21.272;2023-11-22T05:57:19;7.65;;;4.93;;
71513;SDS011;59335;46.652;21.272;2023-11-22T06:00:22;8.87;;;4.90;;
71513;SDS011;59335;46.652;21.272;2023-11-22T06:03:25;8.38;;;5.15;;
71513;SDS011;59335;46.652;21.272;2023-11-22T06:06:28;8.38;;;4.75;;
71513;SDS011;59335;46.652;21.272;2023-11-22T06:09:32;8.88;;;5.25;;
71513;SDS011;59335;46.652;21.272;2023-11-22T06:12:36;8.50;;;4.70;;
71513;SDS011;59335;46.652;21.272;2023-11-22T06:15:40;8.13;;;5.10;;
71513;SDS011;59335;46.652;21.272;2023-11-22T06:18:42;9.02;;;4.97;;
71513;SDS011;59335;46.652;21.272;2023-11-22T06:21:46;8.98;;;4.93;;
71513;SDS011;59335;46.652;21.272;2023-11-22T06:24:49;10.10;;;5.03;;
71513;SDS011;59335;46.652;21.272;2023-11-22T06:27:52;9.40;;;4.90;;
71513;SDS011;59335;46.652;21.272;2023-11-22T06:30:55;14.07;;;5.73;;
71513;SDS011;59335;46.652;21.272;2023-11-22T06:33:57;10.25;;;5.63;;
71513;SDS011;59335;46.652;21.272;2023-11-22T06:37:04;13.55;;;5.50;;
71513;SDS011;59335;46.652;21.272;2023-11-22T06:40:09;10.93;;;5.30;;
71513;SDS011;59335;46.652;21.272;2023-11-22T06:43:16;9.25;;;4.63;;
71513;SDS011;59335;46.652;21.272;2023-11-22T06:46:20;10.33;;;5.97;;
71513;SDS011;59335;46.652;21.272;2023-11-22T06:49:24;10.25;;;5.82;;
71513;SDS011;59335;46.652;21.272;2023-11-22T06:52:27;10.15;;;5.90;;
71513;SDS011;59335;46.652;21.272;2023-11-22T06:55:31;10.57;;;5.93;;
71513;SDS011;59335;46.652;21.272;2023-11-22T06:58:35;9.55;;;5.35;;
71513;SDS011;59335;46.652;21.272;2023-11-22T07:01:41;8.70;;;5.40;;
71513;SDS011;59335;46.652;21.272;2023-11-22T07:04:44;10.52;;;5.10;;
71513;SDS011;59335;46.652;21.272;2023-11-22T07:07:51;10.40;;;5.68;;
71513;SDS011;59335;46.652;21.272;2023-11-22T07:10:57;12.20;;;5.05;;
71513;SDS011;59335;46.652;21.272;2023-11-22T07:14:02;9.60;;;5.20;;
71513;SDS011;59335;46.652;21.272;2023-11-22T07:17:17;9.60;;;5.13;;
71513;SDS011;59335;46.652;21.272;2023-11-22T07:20:22;10.88;;;5.38;;
71513;SDS011;59335;46.652;21.272;2023-11-22T07:23:26;8.48;;;4.93;;
71513;SDS011;59335;46.652;21.272;2023-11-22T07:26:32;9.52;;;5.20;;
71513;SDS011;59335;46.652;21.272;2023-11-22T07:29:40;9.10;;;5.00;;
71513;SDS011;59335;46.652;21.272;2023-11-22T07:32:46;7.93;;;5.10;;
71513;SDS011;59335;46.652;21.272;2023-11-22T07:35:51;8.73;;;5.10;;
71513;SDS011;59335;46.652;21.272;2023-11-22T07:38:55;9.38;;;4.75;;
71513;SDS011;59335;46.652;21.272;2023-11-22T07:41:58;9.52;;;5.45;;
71513;SDS011;59335;46.652;21.272;2023-11-22T07:45:01;11.23;;;5.18;;
71513;SDS011;59335;46.652;21.272;2023-11-22T07:48:07;9.77;;;5.30;;
71513;SDS011;59335;46.652;21.272;2023-11-22T07:51:17;9.90;;;5.15;;
71513;SDS011;59335;46.652;21.272;2023-11-22T07:54:22;8.55;;;5.10;;
71513;SDS011;59335;46.652;21.272;2023-11-22T07:57:26;8.70;;;5.00;;
71513;SDS011;59335;46.652;21.272;2023-11-22T08:00:31;8.40;;;5.03;;
71513;SDS011;59335;46.652;21.272;2023-11-22T08:03:34;9.53;;;4.93;;
71513;SDS011;59335;46.652;21.272;2023-11-22T08:06:38;9.77;;;5.00;;
71513;SDS011;59335;46.652;21.272;2023-11-22T08:09:41;10.70;;;5.05;;
71513;SDS011;59335;46.652;21.272;2023-11-22T08:12:46;9.55;;;5.30;;
71513;SDS011;59335;46.652;21.272;2023-11-22T08:15:52;10.73;;;4.97;;
71513;SDS011;59335;46.652;21.272;2023-11-22T08:18:56;12.00;;;5.13;;
71513;SDS011;59335;46.652;21.272;2023-11-22T08:22:00;8.70;;;4.97;;
71513;SDS011;59335;46.652;21.272;2023-11-22T08:25:03;11.00;;;5.03;;
71513;SDS011;59335;46.652;21.272;2023-11-22T08:28:11;10.98;;;5.03;;
71513;SDS011;59335;46.652;21.272;2023-11-22T08:31:15;8.55;;;4.90;;
71513;SDS011;59335;46.652;21.272;2023-11-22T08:34:19;11.13;;;5.07;;
71513;SDS011;59335;46.652;21.272;2023-11-22T08:37:22;9.40;;;5.30;;
71513;SDS011;59335;46.652;21.272;2023-11-22T08:40:26;9.30;;;4.72;;
71513;SDS011;59335;46.652;21.272;2023-11-22T08:43:29;10.00;;;4.90;;
71513;SDS011;59335;46.652;21.272;2023-11-22T08:46:31;10.77;;;5.07;;
71513;SDS011;59335;46.652;21.272;2023-11-22T08:49:35;10.10;;;5.27;;
71513;SDS011;59335;46.652;21.272;2023-11-22T08:52:41;11.50;;;4.93;;
71513;SDS011;59335;46.652;21.272;2023-11-22T08:55:45;10.80;;;4.78;;
71513;SDS011;59335;46.652;21.272;2023-11-22T08:58:49;10.50;;;4.68;;
71513;SDS011;59335;46.652;21.272;2023-11-22T09:01:52;10.80;;;4.82;;
71513;SDS011;59335;46.652;21.272;2023-11-22T09:04:57;13.33;;;5.07;;
71513;SDS011;59335;46.652;21.272;2023-11-22T09:08:02;13.35;;;5.47;;
71513;SDS011;59335;46.652;21.272;2023-11-22T09:11:20;10.70;;;4.82;;
71513;SDS011;59335;46.652;21.272;2023-11-22T09:14:26;9.88;;;4.75;;
71513;SDS011;59335;46.652;21.272;2023-11-22T09:17:36;12.13;;;4.60;;
71513;SDS011;59335;46.652;21.272;2023-11-22T09:20:46;16.17;;;5.07;;
71513;SDS011;59335;46.652;21.272;2023-11-22T09:23:50;9.50;;;4.40;;
71513;SDS011;59335;46.652;21.272;2023-11-22T09:26:53;12.25;;;4.82;;
71513;SDS011;59335;46.652;21.272;2023-11-22T09:29:57;11.80;;;5.20;;
71513;SDS011;59335;46.652;21.272;2023-11-22T09:33:10;11.23;;;4.43;;
71513;SDS011;59335;46.652;21.272;2023-11-22T09:36:20;13.07;;;5.47;;
71513;SDS011;59335;46.652;21.272;2023-11-22T09:39:25;8.48;;;4.40;;
71513;SDS011;59335;46.652;21.272;2023-11-22T09:42:28;11.73;;;4.72;;
71513;SDS011;59335;46.652;21.272;2023-11-22T09:45:31;12.45;;;4.68;;
71513;SDS011;59335;46.652;21.272;2023-11-22T09:48:35;8.95;;;4.13;;
71513;SDS011;59335;46.652;21.272;2023-11-22T09:51:42;11.20;;;4.17;;
71513;SDS011;59335;46.652;21.272;2023-11-22T09:54:46;9.60;;;4.20;;
71513;SDS011;59335;46.652;21.272;2023-11-22T09:57:58;11.98;;;4.65;;
71513;SDS011;59335;46.652;21.272;2023-11-22T10:01:02;12.55;;;5.10;;
71513;SDS011;59335;46.652;21.272;2023-11-22T10:04:06;12.73;;;4.60;;
71513;SDS011;59335;46.652;21.272;2023-11-22T10:07:10;15.83;;;4.80;;
71513;SDS011;59335;46.652;21.272;2023-11-22T10:10:14;8.90;;;3.85;;
71513;SDS011;59335;46.652;21.272;2023-11-22T10:13:17;10.27;;;4.50;;
71513;SDS011;59335;46.652;21.272;2023-11-22T10:16:22;12.50;;;4.43;;
71513;SDS011;59335;46.652;21.272;2023-11-22T10:19:26;11.73;;;4.38;;
71513;SDS011;59335;46.652;21.272;2023-11-22T10:22:29;10.90;;;4.20;;
71513;SDS011;59335;46.652;21.272;2023-11-22T10:25:32;10.73;;;4.65;;
71513;SDS011;59335;46.652;21.272;2023-11-22T10:28:35;12.75;;;4.63;;
71513;SDS011;59335;46.652;21.272;2023-11-22T10:31:42;11.43;;;4.35;;
71513;SDS011;59335;46.652;21.272;2023-11-22T10:34:46;11.57;;;4.43;;
71513;SDS011;59335;46.652;21.272;2023-11-22T10:37:49;7.33;;;3.83;;
71513;SDS011;59335;46.652;21.272;2023-11-22T10:41:00;7.70;;;4.20;;
71513;SDS011;59335;46.652;21.272;2023-11-22T10:44:06;9.70;;;4.05;;
71513;SDS011;59335;46.652;21.272;2023-11-22T10:47:11;8.30;;;3.78;;
71513;SDS011;59335;46.652;21.272;2023-11-22T10:50:20;11.25;;;4.35;;
71513;SDS011;59335;46.652;21.272;2023-11-22T10:53:25;12.00;;;3.93;;
71513;SDS011;59335;46.652;21.272;2023-11-22T10:56:38;10.02;;;3.97;;
71513;SDS011;59335;46.652;21.272;2023-11-22T10:59:44;11.07;;;4.38;;
71513;SDS011;59335;46.652;21.272;2023-11-22T11:03:00;12.77;;;4.18;;
71513;SDS011;59335;46.652;21.272;2023-11-22T11:06:08;10.52;;;4.05;;
71513;SDS011;59335;46.652;21.272;2023-11-22T11:09:16;12.10;;;4.20;;
71513;SDS011;59335;46.652;21.272;2023-11-22T11:12:23;14.30;;;4.10;;
71513;SDS011;59335;46.652;21.272;2023-11-22T11:15:26;11.88;;;4.10;;
71513;SDS011;59335;46.652;21.272;2023-11-22T11:18:30;10.30;;;3.92;;
71513;SDS011;59335;46.652;21.272;2023-11-22T11:21:36;14.60;;;4.10;;
71513;SDS011;59335;46.652;21.272;2023-11-22T11:24:43;8.20;;;3.80;;
71513;SDS011;59335;46.652;21.272;2023-11-22T11:28:02;11.50;;;3.65;;
71513;SDS011;59335;46.652;21.272;2023-11-22T11:31:06;8.23;;;3.60;;
71513;SDS011;59335;46.652;21.272;2023-11-22T11:34:10;9.60;;;4.05;;
71513;SDS011;59335;46.652;21.272;2023-11-22T11:37:13;12.00;;;3.92;;
71513;SDS011;59335;46.652;21.272;2023-11-22T11:40:26;10.57;;;3.73;;
71513;SDS011;59335;46.652;21.272;2023-11-22T11:47:10;14.38;;;3.92;;
71513;SDS011;59335;46.652;21.272;2023-11-22T11:50:15;11.65;;;3.92;;
71513;SDS011;59335;46.652;21.272;2023-11-22T11:53:20;13.35;;;4.18;;
71513;SDS011;59335;46.652;21.272;2023-11-22T11:56:23;15.43;;;3.87;;
71513;SDS011;59335;46.652;21.272;2023-11-22T11:59:29;15.32;;;3.72;;
71513;SDS011;59335;46.652;21.272;2023-11-22T12:02:32;15.55;;;4.05;;
71513;SDS011;59335;46.652;21.272;2023-11-22T12:05:37;9.88;;;3.92;;
71513;SDS011;59335;46.652;21.272;2023-11-22T12:08:41;13.10;;;3.55;;
71513;SDS011;59335;46.652;21.272;2023-11-22T12:11:44;13.20;;;4.47;;
71513;SDS011;59335;46.652;21.272;2023-11-22T12:14:52;11.93;;;4.10;;
71513;SDS011;59335;46.652;21.272;2023-11-22T12:17:57;12.82;;;3.92;;
71513;SDS011;59335;46.652;21.272;2023-11-22T12:21:02;10.65;;;3.60;;
71513;SDS011;59335;46.652;21.272;2023-11-22T12:24:08;10.27;;;3.95;;
71513;SDS011;59335;46.652;21.272;2023-11-22T12:27:13;11.90;;;3.67;;
71513;SDS011;59335;46.652;21.272;2023-11-22T12:30:32;12.88;;;3.70;;
71513;SDS011;59335;46.652;21.272;2023-11-22T12:33:37;13.68;;;4.05;;
71513;SDS011;59335;46.652;21.272;2023-11-22T12:36:46;18.80;;;3.80;;
71513;SDS011;59335;46.652;21.272;2023-11-22T12:39:52;13.02;;;4.10;;
71513;SDS011;59335;46.652;21.272;2023-11-22T12:42:55;11.17;;;3.70;;
71513;SDS011;59335;46.652;21.272;2023-11-22T12:46:00;14.02;;;3.88;;
71513;SDS011;59335;46.652;21.272;2023-11-22T12:49:06;9.50;;;3.85;;
71513;SDS011;59335;46.652;21.272;2023-11-22T12:52:10;14.10;;;3.72;;
71513;SDS011;59335;46.652;21.272;2023-11-22T12:55:14;12.93;;;3.88;;
71513;SDS011;59335;46.652;21.272;2023-11-22T12:58:22;11.17;;;3.53;;
71513;SDS011;59335;46.652;21.272;2023-11-22T13:01:31;14.88;;;3.80;;
71513;SDS011;59335;46.652;21.272;2023-11-22T13:04:34;11.63;;;3.53;;
71513;SDS011;59335;46.652;21.272;2023-11-22T13:07:38;13.43;;;3.67;;
71513;SDS011;59335;46.652;21.272;2023-11-22T13:10:44;9.93;;;3.50;;
71513;SDS011;59335;46.652;21.272;2023-11-22T13:13:47;10.53;;;3.47;;
71513;SDS011;59335;46.652;21.272;2023-11-22T13:16:50;10.95;;;3.78;;
71513;SDS011;59335;46.652;21.272;2023-11-22T13:19:54;10.07;;;3.60;;
71513;SDS011;59335;46.652;21.272;2023-11-22T13:22:58;14.20;;;3.55;;
71513;SDS011;59335;46.652;21.272;2023-11-22T13:26:02;12.68;;;3.80;;
71513;SDS011;59335;46.652;21.272;2023-11-22T13:29:08;15.03;;;3.50;;
71513;SDS011;59335;46.652;21.272;2023-11-22T13:32:11;14.32;;;3.40;;
71513;SDS011;59335;46.652;21.272;2023-11-22T13:35:14;10.27;;;3.28;;
71513;SDS011;59335;46.652;21.272;2023-11-22T13:38:20;13.40;;;3.83;;
71513;SDS011;59335;46.652;21.272;2023-11-22T13:41:24;8.88;;;3.70;;
71513;SDS011;59335;46.652;21.272;2023-11-22T13:44:28;9.60;;;3.60;;
71513;SDS011;59335;46.652;21.272;2023-11-22T13:47:31;13.80;;;4.32;;
71513;SDS011;59335;46.652;21.272;2023-11-22T13:50:37;9.10;;;3.90;;
71513;SDS011;59335;46.652;21.272;2023-11-22T13:53:40;8.38;;;3.42;;
71513;SDS011;59335;46.652;21.272;2023-11-22T13:56:52;11.75;;;3.20;;
71513;SDS011;59335;46.652;21.272;2023-11-22T13:59:55;7.17;;;3.57;;
71513;SDS011;59335;46.652;21.272;2023-11-22T14:02:58;9.52;;;3.65;;
71513;SDS011;59335;46.652;21.272;2023-11-22T14:06:12;9.95;;;3.30;;
71513;SDS011;59335;46.652;21.272;2023-11-22T14:09:23;8.23;;;3.38;;
71513;SDS011;59335;46.652;21.272;2023-11-22T14:12:26;12.10;;;3.80;;
71513;SDS011;59335;46.652;21.272;2023-11-22T14:15:29;9.93;;;3.53;;
71513;SDS011;59335;46.652;21.272;2023-11-22T14:18:33;10.82;;;3.78;;
71513;SDS011;59335;46.652;21.272;2023-11-22T14:21:37;10.70;;;3.72;;
71513;SDS011;59335;46.652;21.272;2023-11-22T14:24:40;8.50;;;3.67;;
71513;SDS011;59335;46.652;21.272;2023-11-22T14:27:44;8.73;;;3.47;;
71513;SDS011;59335;46.652;21.272;2023-11-22T14:30:48;8.37;;;3.20;;
71513;SDS011;59335;46.652;21.272;2023-11-22T14:33:57;11.38;;;3.80;;
71513;SDS011;59335;46.652;21.272;2023-11-22T14:37:02;7.70;;;3.28;;
71513;SDS011;59335;46.652;21.272;2023-11-22T14:40:05;10.73;;;4.03;;
71513;SDS011;59335;46.652;21.272;2023-11-22T14:43:16;13.70;;;3.90;;
71513;SDS011;59335;46.652;21.272;2023-11-22T14:46:19;9.40;;;3.23;;
71513;SDS011;59335;46.652;21.272;2023-11-22T14:49:22;11.90;;;3.42;;
71513;SDS011;59335;46.652;21.272;2023-11-22T14:52:29;10.65;;;3.13;;
71513;SDS011;59335;46.652;21.272;2023-11-22T14:55:33;9.48;;;3.60;;
71513;SDS011;59335;46.652;21.272;2023-11-22T14:58:43;11.75;;;3.47;;
71513;SDS011;59335;46.652;21.272;2023-11-22T15:01:47;10.77;;;3.70;;
71513;SDS011;59335;46.652;21.272;2023-11-22T15:04:50;7.93;;;3.22;;
71513;SDS011;59335;46.652;21.272;2023-11-22T15:07:53;13.43;;;3.45;;
71513;SDS011;59335;46.652;21.272;2023-11-22T15:10:59;15.90;;;3.50;;
71513;SDS011;59335;46.652;21.272;2023-11-22T15:14:02;17.65;;;3.95;;
71513;SDS011;59335;46.652;21.272;2023-11-22T15:17:05;19.63;;;4.13;;
71513;SDS011;59335;46.652;21.272;2023-11-22T15:20:08;46.08;;;5.05;;
71513;SDS011;59335;46.652;21.272;2023-11-22T15:23:14;18.92;;;4.00;;
71513;SDS011;59335;46.652;21.272;2023-11-22T15:26:17;18.80;;;4.05;;
71513;SDS011;59335;46.652;21.272;2023-11-22T15:29:20;16.25;;;3.92;;
71513;SDS011;59335;46.652;21.272;2023-11-22T15:32:23;16.30;;;3.97;;
71513;SDS011;59335;46.652;21.272;2023-11-22T15:35:26;17.35;;;3.95;;
71513;SDS011;59335;46.652;21.272;2023-11-22T15:38:29;18.10;;;4.28;;
71513;SDS011;59335;46.652;21.272;2023-11-22T15:41:32;23.65;;;4.47;;
71513;SDS011;59335;46.652;21.272;2023-11-22T15:44:35;14.45;;;3.65;;
71513;SDS011;59335;46.652;21.272;2023-11-22T15:47:39;16.33;;;4.20;;
71513;SDS011;59335;46.652;21.272;2023-11-22T15:50:42;21.60;;;3.80;;
71513;SDS011;59335;46.652;21.272;2023-11-22T15:53:45;10.73;;;3.95;;
71513;SDS011;59335;46.652;21.272;2023-11-22T15:56:50;15.10;;;4.00;;
71513;SDS011;59335;46.652;21.272;2023-11-22T15:59:53;22.50;;;4.25;;
71513;SDS011;59335;46.652;21.272;2023-11-22T16:02:56;18.27;;;4.10;;
71513;SDS011;59335;46.652;21.272;2023-11-22T16:06:01;17.20;;;3.90;;
71513;SDS011;59335;46.652;21.272;2023-11-22T16:09:07;22.70;;;3.95;;
71513;SDS011;59335;46.652;21.272;2023-11-22T16:12:15;15.70;;;3.95;;
71513;SDS011;59335;46.652;21.272;2023-11-22T16:15:21;15.15;;;3.97;;
71513;SDS011;59335;46.652;21.272;2023-11-22T16:18:23;13.43;;;3.77;;
71513;SDS011;59335;46.652;21.272;2023-11-22T16:21:29;13.20;;;4.18;;
71513;SDS011;59335;46.652;21.272;2023-11-22T16:24:32;11.32;;;3.67;;
71513;SDS011;59335;46.652;21.272;2023-11-22T16:27:35;17.92;;;4.40;;
71513;SDS011;59335;46.652;21.272;2023-11-22T16:30:38;16.15;;;3.33;;
71513;SDS011;59335;46.652;21.272;2023-11-22T16:33:40;10.33;;;3.70;;
71513;SDS011;59335;46.652;21.272;2023-11-22T16:36:43;14.15;;;3.55;;
71513;SDS011;59335;46.652;21.272;2023-11-22T16:39:46;12.95;;;3.30;;
71513;SDS011;59335;46.652;21.272;2023-11-22T16:42:48;12.10;;;3.85;;
71513;SDS011;59335;46.652;21.272;2023-11-22T16:45:51;10.80;;;3.53;;
71513;SDS011;59335;46.652;21.272;2023-11-22T16:48:54;17.77;;;4.43;;
71513;SDS011;59335;46.652;21.272;2023-11-22T16:51:57;11.82;;;3.58;;
71513;SDS011;59335;46.652;21.272;2023-11-22T16:55:01;13.68;;;3.65;;
71513;SDS011;59335;46.652;21.272;2023-11-22T16:58:06;15.88;;;3.90;;
71513;SDS011;59335;46.652;21.272;2023-11-22T17:01:09;17.67;;;4.07;;
71513;SDS011;59335;46.652;21.272;2023-11-22T17:04:12;13.40;;;3.70;;
71513;SDS011;59335;46.652;21.272;2023-11-22T17:07:15;13.65;;;4.45;;
71513;SDS011;59335;46.652;21.272;2023-11-22T17:10:18;9.32;;;3.50;;
71513;SDS011;59335;46.652;21.272;2023-11-22T17:13:42;11.98;;;3.80;;
71513;SDS011;59335;46.652;21.272;2023-11-22T17:16:45;11.88;;;3.75;;
71513;SDS011;59335;46.652;21.272;2023-11-22T17:19:48;13.33;;;3.67;;
71513;SDS011;59335;46.652;21.272;2023-11-22T17:22:52;11.35;;;3.63;;
71513;SDS011;59335;46.652;21.272;2023-11-22T17:25:55;12.50;;;3.70;;
71513;SDS011;59335;46.652;21.272;2023-11-22T17:28:58;11.63;;;3.50;;
71513;SDS011;59335;46.652;21.272;2023-11-22T17:32:01;14.35;;;3.60;;
71513;SDS011;59335;46.652;21.272;2023-11-22T17:35:05;11.03;;;3.70;;
71513;SDS011;59335;46.652;21.272;2023-11-22T17:38:09;11.73;;;3.50;;
71513;SDS011;59335;46.652;21.272;2023-11-22T17:41:12;10.73;;;3.60;;
71513;SDS011;59335;46.652;21.272;2023-11-22T17:44:15;11.52;;;3.75;;
71513;SDS011;59335;46.652;21.272;2023-11-22T17:47:19;8.27;;;3.30;;
71513;SDS011;59335;46.652;21.272;2023-11-22T17:50:22;11.67;;;3.80;;
71513;SDS011;59335;46.652;21.272;2023-11-22T17:53:25;10.32;;;3.55;;
71513;SDS011;59335;46.652;21.272;2023-11-22T17:56:28;10.73;;;4.18;;
71513;SDS011;59335;46.652;21.272;2023-11-22T17:59:31;7.47;;;3.20;;
71513;SDS011;59335;46.652;21.272;2023-11-22T18:02:34;10.50;;;3.60;;
71513;SDS011;59335;46.652;21.272;2023-11-22T18:05:37;12.03;;;4.07;;
71513;SDS011;59335;46.652;21.272;2023-11-22T18:08:40;8.93;;;3.63;;
71513;SDS011;59335;46.652;21.272;2023-11-22T18:11:43;8.70;;;3.53;;
71513;SDS011;59335;46.652;21.272;2023-11-22T18:14:47;9.50;;;3.67;;